Time;durP1;ratioP1;P1;durP2;ratioP2;P2;SDS_P1;SDS_P2;PMS_P1;PMS_P2;Temp;Humidity;BMP_temperature;BMP_pressure;BME280_temperature;BME280_humidity;BME280_pressure;Samples;Min_cycle;Max_cycle;Signal;HPM_P1;HPM_P2
2021/11/30 00:01:07;;;;;;;;;13.00;9.00;;;;;5.21;67.78;101668.69;5056916;28;45473;-48
2021/11/30 00:03:37;;;;;;;;;13.50;13.00;;;;;5.23;68.68;101664.28;5060305;28;46598;-51
2021/11/30 00:06:04;;;;;;;;;8.50;8.00;;;;;5.28;67.87;101669.41;5060224;28;45329;-47
2021/11/30 00:08:32;;;;;;;;;11.75;10.00;;;;;5.31;68.43;101661.50;5060256;28;45389;-47
2021/11/30 00:10:59;;;;;;;;;12.25;10.00;;;;;5.33;67.53;101655.34;5060465;27;45323;-47
2021/11/30 00:13:26;;;;;;;;;11.25;10.75;;;;;5.37;67.64;101663.09;5059927;28;45444;-47
2021/11/30 00:15:53;;;;;;;;;12.75;10.75;;;;;5.40;68.34;101665.66;5060266;27;45307;-48
2021/11/30 00:18:19;;;;;;;;;12.00;12.00;;;;;5.43;67.65;101661.22;5061533;28;45251;-49
2021/11/30 00:20:45;;;;;;;;;12.00;11.00;;;;;5.47;68.26;101657.66;5058871;28;45302;-46
2021/11/30 00:23:12;;;;;;;;;10.75;10.00;;;;;5.49;68.43;101650.63;5061433;28;45852;-48
2021/11/30 00:25:38;;;;;;;;;16.00;12.50;;;;;5.54;68.44;101658.38;5059789;28;45382;-49
2021/11/30 00:28:05;;;;;;;;;14.25;13.50;;;;;5.58;68.13;101652.16;5060312;28;45445;-45
2021/11/30 00:30:32;;;;;;;;;13.75;11.50;;;;;5.58;67.93;101646.94;5061559;28;46194;-46
2021/11/30 00:32:59;;;;;;;;;13.00;12.00;;;;;5.63;67.84;101658.16;5056507;28;46074;-46
2021/11/30 00:35:24;;;;;;;;;8.50;8.50;;;;;5.66;68.02;101654.59;5062137;28;45644;-45
2021/11/30 00:37:50;;;;;;;;;11.25;9.25;;;;;5.67;67.49;101641.47;5059306;28;45521;-47
2021/11/30 00:40:17;;;;;;;;;11.00;9.00;;;;;5.68;67.87;101639.72;5059723;28;45575;-46
2021/11/30 00:42:42;;;;;;;;;9.75;9.75;;;;;5.71;68.34;101642.28;5057927;28;45443;-46
2021/11/30 00:45:09;;;;;;;;;13.50;10.00;;;;;5.72;67.97;101631.78;5058443;28;45260;-48
2021/11/30 00:47:44;;;;;;;;;13.75;9.75;;;;;5.78;68.56;101628.16;5059605;27;45408;-46
2021/11/30 00:50:11;;;;;;;;;12.00;9.00;;;;;5.82;67.60;101643.72;5058799;28;45603;-45
2021/11/30 00:52:37;;;;;;;;;9.75;9.25;;;;;5.87;68.06;101630.53;5055779;28;46211;-48
2021/11/30 00:55:05;;;;;;;;;13.25;10.00;;;;;5.93;67.49;101632.19;5059969;28;45468;-48
2021/11/30 00:57:30;;;;;;;;;11.75;9.00;;;;;5.96;67.95;101638.19;5058477;28;45515;-48
2021/11/30 00:59:56;;;;;;;;;13.50;8.00;;;;;6.02;68.43;101639.78;5059265;28;45489;-47
2021/11/30 01:02:22;;;;;;;;;8.25;8.25;;;;;6.05;68.45;101637.94;5058026;28;45386;-47
2021/11/30 01:04:48;;;;;;;;;12.00;9.00;;;;;6.04;67.99;101636.22;5059060;27;45325;-45
2021/11/30 01:07:15;;;;;;;;;13.75;11.75;;;;;6.09;67.70;101634.34;5059300;28;45310;-45
2021/11/30 01:09:42;;;;;;;;;11.75;10.50;;;;;6.14;67.63;101634.22;5057034;28;45380;-45
2021/11/30 01:12:08;;;;;;;;;9.00;8.75;;;;;6.16;67.61;101632.41;5058786;28;45485;-45
2021/11/30 01:14:34;;;;;;;;;11.00;9.50;;;;;6.19;68.18;101631.50;5059894;27;45523;-46
2021/11/30 01:16:59;;;;;;;;;14.00;11.50;;;;;6.22;68.11;101624.41;5057720;27;45464;-48
2021/11/30 01:19:25;;;;;;;;;13.50;10.00;;;;;6.24;67.83;101626.97;5059156;28;45481;-49
2021/11/30 01:21:51;;;;;;;;;14.25;9.25;;;;;6.25;68.42;101629.56;5059863;28;45416;-46
2021/11/30 01:24:17;;;;;;;;;14.75;10.50;;;;;6.28;67.62;101616.41;5057442;28;45524;-48
2021/11/30 01:26:43;;;;;;;;;9.25;9.00;;;;;6.32;68.09;101606.69;5058217;28;45425;-46
2021/11/30 01:29:09;;;;;;;;;12.25;9.00;;;;;6.38;67.64;101622.22;5055098;28;45528;-50
2021/11/30 01:31:34;;;;;;;;;9.00;9.00;;;;;6.39;67.58;101611.72;5072532;28;45632;-47
2021/11/30 01:34:00;;;;;;;;;8.50;5.00;;;;;6.38;67.83;101606.53;5055772;28;45430;-49
2021/11/30 01:36:25;;;;;;;;;14.00;10.25;;;;;6.39;67.46;101603.84;5055447;28;45434;-46
2021/11/30 01:38:51;;;;;;;;;9.50;9.00;;;;;6.40;68.03;101605.59;5058134;27;45304;-46
2021/11/30 01:41:17;;;;;;;;;14.50;10.25;;;;;6.41;67.38;101606.47;5054944;28;46202;-47
2021/11/30 01:43:44;;;;;;;;;10.50;9.25;;;;;6.41;67.64;101604.69;5055034;28;45532;-46
2021/11/30 01:52:10;;;;;;;;;17.25;10.25;;;;;6.48;68.17;101602.78;5052322;28;45655;-49
2021/11/30 01:54:39;;;;;;;;;10.50;9.50;;;;;6.49;68.18;101604.47;5053617;28;45519;-47
2021/11/30 01:57:06;;;;;;;;;13.50;10.50;;;;;6.51;67.92;101607.91;5053433;28;45833;-51
2021/11/30 01:59:32;;;;;;;;;17.00;9.00;;;;;6.52;67.72;101604.38;5054693;28;45573;-49
2021/11/30 02:01:58;;;;;;;;;12.50;10.00;;;;;6.54;68.22;101596.47;5050933;28;45627;-49
2021/11/30 02:04:23;;;;;;;;;14.50;10.00;;;;;6.58;67.50;101590.28;5054747;28;45439;-48
2021/11/30 02:06:49;;;;;;;;;14.00;11.00;;;;;6.60;67.52;101593.69;5053000;28;45430;-48
2021/11/30 02:09:15;;;;;;;;;11.00;9.75;;;;;6.60;67.51;101591.06;5054040;28;45684;-47
2021/11/30 02:11:40;;;;;;;;;10.75;9.75;;;;;6.62;67.31;101584.03;5056718;28;45547;-46
2021/11/30 02:14:06;;;;;;;;;12.00;9.00;;;;;6.65;67.70;101590.03;5054503;28;45562;-48
2021/11/30 02:16:31;;;;;;;;;12.75;10.00;;;;;6.65;67.76;101584.81;5056515;28;45526;-49
2021/11/30 02:19:00;;;;;;;;;16.50;12.25;;;;;6.65;67.11;101581.34;5054840;28;45663;-47
2021/11/30 02:21:28;;;;;;;;;11.00;10.00;;;;;6.65;67.44;101563.88;5057490;28;45365;-49
2021/11/30 02:24:00;;;;;;;;;17.00;14.25;;;;;6.64;68.01;101558.69;5054674;28;45423;-51
2021/11/30 02:26:27;;;;;;;;;15.00;10.75;;;;;6.61;67.91;101557.00;5054937;28;45374;-47
2021/11/30 02:28:56;;;;;;;;;21.50;14.00;;;;;6.57;67.96;101554.53;5054486;28;45553;-49
2021/11/30 02:31:23;;;;;;;;;13.75;12.00;;;;;6.54;67.62;101571.16;5072957;28;45862;-51
2021/11/30 02:33:50;;;;;;;;;13.50;11.25;;;;;6.51;67.76;101557.31;5058321;27;45572;-51
2021/11/30 02:36:25;;;;;;;;;11.25;9.00;;;;;6.49;67.33;101552.13;5060050;28;45232;-48
2021/11/30 02:38:53;;;;;;;;;21.50;12.75;;;;;6.45;67.63;101558.34;5075603;27;45906;-49
2021/11/30 02:41:20;;;;;;;;;16.25;13.00;;;;;6.41;67.46;101556.75;5059865;28;45227;-50
2021/11/30 02:43:46;;;;;;;;;16.25;11.75;;;;;6.38;67.70;101555.03;5063068;28;45402;-50
2021/11/30 02:46:34;;;;;;;;;20.75;14.75;;;;;6.38;68.05;101551.56;5069618;28;45441;-48
2021/11/30 02:49:01;;;;;;;;;10.75;9.25;;;;;6.39;68.04;101551.53;5066991;28;45438;-46
2021/11/30 02:51:27;;;;;;;;;11.00;10.00;;;;;6.41;67.84;101557.59;5062804;28;45353;-49
2021/11/30 02:53:55;;;;;;;;;13.75;10.75;;;;;6.46;67.56;101551.34;5061292;28;45367;-48
2021/11/30 02:56:20;;;;;;;;;11.75;10.00;;;;;6.48;68.39;101555.66;5061314;28;45445;-50
2021/11/30 02:58:46;;;;;;;;;12.00;9.75;;;;;6.49;68.12;101551.28;5062617;28;45785;-47
2021/11/30 03:01:12;;;;;;;;;15.00;11.25;;;;;6.52;67.98;101559.03;5062827;28;45477;-50
2021/11/30 03:03:38;;;;;;;;;13.25;10.00;;;;;6.54;67.85;101550.22;5062971;27;45354;-47
2021/11/30 03:06:04;;;;;;;;;13.00;13.00;;;;;6.58;67.64;101564.09;5063240;28;45336;-46
2021/11/30 03:08:29;;;;;;;;;11.00;10.50;;;;;6.64;67.81;101563.91;5063291;28;45475;-46
2021/11/30 03:10:55;;;;;;;;;15.25;11.00;;;;;6.66;67.43;101552.50;5062613;27;45379;-53
2021/11/30 03:13:21;;;;;;;;;12.25;10.00;;;;;6.70;68.25;101556.72;5062636;28;45375;-50
2021/11/30 03:15:53;;;;;;;;;10.75;10.50;;;;;6.72;67.93;101559.31;5063001;28;45176;-48
2021/11/30 03:18:20;;;;;;;;;11.25;10.50;;;;;6.75;67.65;101558.34;5062816;28;45413;-50
2021/11/30 03:20:46;;;;;;;;;13.75;9.75;;;;;6.78;67.84;101558.25;5062861;28;45173;-52
2021/11/30 03:23:11;;;;;;;;;14.75;11.50;;;;;6.79;67.72;101563.44;5062616;28;45300;-48
2021/11/30 03:25:37;;;;;;;;;16.00;9.00;;;;;6.79;67.45;101557.34;5062893;28;45209;-49
2021/11/30 03:28:03;;;;;;;;;13.00;10.50;;;;;6.80;67.82;101564.31;5062491;27;45418;-51
2021/11/30 03:30:28;;;;;;;;;10.00;10.00;;;;;6.83;67.31;101565.06;5078290;27;45385;-49
2021/11/30 03:35:38;;;;;;;;;13.50;9.00;;;;;6.86;67.10;101564.09;5062832;28;45250;-48
2021/11/30 03:38:04;;;;;;;;;15.50;10.75;;;;;6.85;67.85;101570.25;5062709;28;45177;-48
2021/11/30 03:40:30;;;;;;;;;11.50;10.75;;;;;6.87;67.27;101564.09;5062401;27;45346;-47
2021/11/30 03:42:55;;;;;;;;;14.25;12.25;;;;;6.90;67.93;101569.22;5062248;28;45516;-48
2021/11/30 03:45:21;;;;;;;;;19.00;13.50;;;;;6.89;67.98;101566.66;5062594;28;45332;-48
2021/11/30 03:47:46;;;;;;;;;13.00;10.00;;;;;6.89;67.96;101569.28;5076037;28;45322;-51
2021/11/30 03:50:12;;;;;;;;;13.00;10.25;;;;;6.90;68.00;101574.44;5054281;28;45378;-48
2021/11/30 03:52:38;;;;;;;;;15.00;11.75;;;;;6.90;67.86;101576.22;5061737;28;45325;-46
2021/11/30 03:55:05;;;;;;;;;15.25;9.75;;;;;6.87;68.40;101577.19;5061679;27;45333;-51
2021/11/30 03:57:30;;;;;;;;;16.25;11.00;;;;;6.86;68.13;101585.06;5062089;28;45407;-50
2021/11/30 03:59:55;;;;;;;;;14.50;12.75;;;;;6.84;68.69;101576.41;5062139;28;45885;-51
2021/11/30 04:02:21;;;;;;;;;14.00;12.25;;;;;6.84;69.01;101579.00;5062089;28;45457;-48
2021/11/30 04:04:46;;;;;;;;;12.75;10.50;;;;;6.84;69.73;101577.25;5058615;28;45142;-52
2021/11/30 04:07:12;;;;;;;;;17.25;15.00;;;;;6.85;69.69;101570.25;5061014;28;45443;-47
2021/11/30 04:09:37;;;;;;;;;15.75;13.25;;;;;6.85;69.46;101565.88;5062036;28;46158;-48
2021/11/30 04:12:05;;;;;;;;;11.50;9.50;;;;;6.84;69.28;101563.31;5089293;27;45335;-49
2021/11/30 04:14:31;;;;;;;;;16.50;12.50;;;;;6.84;69.75;101568.53;5054282;28;45605;-50
2021/11/30 04:16:56;;;;;;;;;18.00;15.25;;;;;6.86;69.91;101564.09;5061638;28;45626;-47
2021/11/30 04:19:22;;;;;;;;;15.00;9.50;;;;;6.88;69.95;101564.94;5061752;28;46006;-46
2021/11/30 04:21:47;;;;;;;;;14.75;13.50;;;;;6.87;69.91;101553.59;5061615;28;45270;-47
2021/11/30 04:24:13;;;;;;;;;14.50;10.75;;;;;6.86;70.42;101557.09;5061900;28;45360;-49
2021/11/30 04:26:39;;;;;;;;;13.50;11.75;;;;;6.85;70.44;101554.53;5061714;28;45389;-47
2021/11/30 04:29:04;;;;;;;;;15.75;12.75;;;;;6.85;70.63;101552.78;5061403;28;46023;-50
2021/11/30 04:31:31;;;;;;;;;15.25;10.75;;;;;6.87;70.69;101548.38;5061626;28;45321;-50
2021/11/30 04:33:58;;;;;;;;;17.00;13.00;;;;;6.87;70.63;101551.00;5061575;27;45528;-51
2021/11/30 04:36:24;;;;;;;;;12.50;11.00;;;;;6.88;70.64;101552.69;5061713;28;45179;-48
2021/11/30 04:38:50;;;;;;;;;13.50;10.00;;;;;6.88;70.60;101555.31;5061579;27;45393;-49
2021/11/30 04:41:15;;;;;;;;;14.00;11.00;;;;;6.86;70.59;101548.41;5061305;27;45448;-47
2021/11/30 04:43:41;;;;;;;;;6.25;5.75;;;;;6.88;70.82;101557.94;5077023;28;45323;-46
2021/11/30 04:48:36;;;;;;;;;14.25;11.50;;;;;6.83;71.35;101556.34;5068623;28;45310;-49
2021/11/30 04:51:03;;;;;;;;;13.50;11.50;;;;;6.81;71.13;101550.31;5060056;28;45388;-49
2021/11/30 04:53:31;;;;;;;;;14.50;11.00;;;;;6.77;70.61;101551.31;5061412;28;45236;-51
2021/11/30 04:55:56;;;;;;;;;15.50;13.00;;;;;6.77;71.21;101552.16;5061266;27;45515;-48
2021/11/30 04:58:22;;;;;;;;;11.25;7.00;;;;;6.75;70.89;101555.72;5060935;28;45646;-52
2021/11/30 05:00:48;;;;;;;;;15.00;14.25;;;;;6.74;71.11;101559.25;5061239;28;45445;-48
2021/11/30 05:03:14;;;;;;;;;13.50;13.50;;;;;6.72;71.35;101561.94;5061362;28;45537;-48
2021/11/30 05:05:40;;;;;;;;;15.00;10.00;;;;;6.72;71.49;101561.94;5060120;28;45550;-50
2021/11/30 05:08:07;;;;;;;;;17.00;13.25;;;;;6.70;71.71;101551.47;5061080;28;45354;-50
2021/11/30 05:10:33;;;;;;;;;7.25;5.50;;;;;6.72;71.93;101544.47;5061017;28;45274;-51
2021/11/30 05:13:01;;;;;;;;;14.25;13.25;;;;;6.73;71.91;101545.31;5061104;28;45221;-51
2021/11/30 05:15:27;;;;;;;;;15.50;12.50;;;;;6.74;72.09;101544.41;5061219;27;45322;-50
2021/11/30 05:17:52;;;;;;;;;11.00;10.00;;;;;6.75;71.78;101546.13;5061005;28;45510;-48
2021/11/30 05:20:18;;;;;;;;;11.25;10.00;;;;;6.78;72.33;101548.63;5076758;27;45495;-46
2021/11/30 05:22:43;;;;;;;;;14.75;12.75;;;;;6.81;72.25;101534.59;5060998;28;45601;-47
2021/11/30 05:25:09;;;;;;;;;15.00;10.00;;;;;6.83;72.37;101530.16;5060962;28;45305;-52
2021/11/30 05:27:42;;;;;;;;;11.00;8.75;;;;;6.84;72.32;101519.63;5060288;27;45533;-51
2021/11/30 05:30:10;;;;;;;;;9.00;7.00;;;;;6.86;72.14;101519.59;5060838;28;45454;-46
2021/11/30 05:32:36;;;;;;;;;14.25;10.00;;;;;6.91;72.02;101520.31;5060539;28;45319;-47
2021/11/30 05:35:02;;;;;;;;;10.00;9.00;;;;;6.94;71.79;101518.44;5061068;28;45512;-45
2021/11/30 05:37:27;;;;;;;;;10.25;8.00;;;;;6.96;72.14;101521.88;5060817;28;46224;-46
2021/11/30 05:39:53;;;;;;;;;11.25;7.00;;;;;6.96;71.71;101521.88;5060976;28;45390;-47
2021/11/30 05:42:18;;;;;;;;;9.25;9.25;;;;;6.98;72.25;101527.06;5060573;28;45274;-45
2021/11/30 05:44:44;;;;;;;;;8.75;6.75;;;;;7.01;72.10;101526.97;5059798;28;45399;-49
2021/11/30 05:47:09;;;;;;;;;8.50;6.50;;;;;6.99;72.38;101527.00;5068079;28;45526;-51
2021/11/30 05:49:35;;;;;;;;;9.50;8.00;;;;;7.03;72.61;101519.94;5060363;28;45164;-52
2021/11/30 05:52:00;;;;;;;;;11.25;9.00;;;;;7.07;72.16;101518.91;5060587;27;45392;-51
2021/11/30 05:54:26;;;;;;;;;10.75;8.00;;;;;7.09;72.19;101542.44;5060737;28;45236;-49
2021/11/30 05:56:52;;;;;;;;;10.50;10.00;;;;;7.12;72.32;101524.88;5060021;28;46135;-49
2021/11/30 05:59:19;;;;;;;;;9.00;8.00;;;;;7.16;72.21;101529.09;5060483;28;45243;-49
2021/11/30 06:01:46;;;;;;;;;10.00;7.00;;;;;7.17;71.98;101514.22;5060531;28;45855;-49
2021/11/30 06:04:11;;;;;;;;;11.50;7.75;;;;;7.19;72.45;101517.69;5060380;27;45489;-50
2021/11/30 06:06:38;;;;;;;;;11.75;9.25;;;;;7.19;72.21;101515.91;5060292;28;45564;-50
2021/11/30 06:09:09;;;;;;;;;10.50;8.75;;;;;7.22;72.35;101528.03;5060123;28;45411;-48
2021/11/30 06:11:35;;;;;;;;;9.50;8.00;;;;;7.24;72.05;101531.47;5060232;28;45306;-50
2021/11/30 06:14:01;;;;;;;;;12.50;10.50;;;;;7.25;72.08;101523.53;5060573;28;45235;-52
2021/11/30 06:16:26;;;;;;;;;7.50;7.50;;;;;7.30;72.60;101517.31;5083770;27;46803;-47
2021/11/30 06:18:52;;;;;;;;;5.00;5.00;;;;;7.32;72.29;101518.09;5062290;28;45362;-50
2021/11/30 06:21:18;;;;;;;;;43.25;37.75;;;;;7.34;72.27;101524.16;5063261;28;45174;-48
2021/11/30 06:23:46;;;;;;;;;12.75;11.00;;;;;7.36;72.23;101519.75;5064108;28;45157;-48
2021/11/30 06:26:12;;;;;;;;;11.25;10.50;;;;;7.41;71.93;101521.28;5063224;27;45405;-50
2021/11/30 06:28:38;;;;;;;;;22.00;11.00;;;;;7.43;72.01;101531.72;5063612;28;45333;-48
2021/11/30 06:31:05;;;;;;;;;9.75;8.25;;;;;7.43;71.98;101516.84;5057241;28;45453;-51
2021/11/30 06:33:31;;;;;;;;;8.00;7.00;;;;;7.47;72.09;101522.84;5063686;28;45469;-49
2021/11/30 06:35:58;;;;;;;;;2.00;2.00;;;;;7.47;72.26;101523.69;5063274;28;46197;-51
2021/11/30 06:38:24;;;;;;;;;9.75;8.25;;;;;7.47;72.03;101528.94;5063289;28;45299;-46
2021/11/30 06:40:50;;;;;;;;;10.00;9.00;;;;;7.49;72.15;101528.88;5054176;28;45462;-46
2021/11/30 06:43:15;;;;;;;;;8.00;7.25;;;;;7.48;71.93;101525.41;5054249;28;45505;-52
2021/11/30 06:45:42;;;;;;;;;10.50;7.25;;;;;7.47;71.86;101513.22;5062180;28;46632;-48
2021/11/30 06:48:07;;;;;;;;;8.75;8.00;;;;;7.48;72.24;101511.44;5062492;28;45470;-49
2021/11/30 06:50:33;;;;;;;;;10.25;7.25;;;;;7.49;72.01;101507.91;5059053;28;45396;-49
2021/11/30 06:52:58;;;;;;;;;5.75;5.75;;;;;7.50;71.83;101509.63;5063167;27;45460;-48
2021/11/30 06:55:24;;;;;;;;;11.75;8.25;;;;;7.48;72.20;101500.97;5062870;28;45969;-52
2021/11/30 06:57:49;;;;;;;;;9.50;7.75;;;;;7.47;72.18;101517.59;5061275;27;45464;-51
2021/11/30 07:00:18;;;;;;;;;7.75;7.75;;;;;7.46;71.96;101505.41;5060745;28;45406;-49
2021/11/30 07:02:44;;;;;;;;;8.50;6.50;;;;;7.46;72.35;101508.88;5061232;28;45482;-48
2021/11/30 07:05:17;;;;;;;;;12.00;11.25;;;;;7.47;72.10;101514.97;5043485;28;45428;-53
2021/11/30 07:13:05;;;;;;;;;3.00;3.00;;;;;7.44;72.26;101509.84;5060143;28;45256;-49
2021/11/30 07:15:31;;;;;;;;;11.25;9.50;;;;;7.44;72.35;101520.34;5060399;28;45295;-48
2021/11/30 07:17:58;;;;;;;;;10.00;8.25;;;;;7.46;72.20;101521.13;5061740;28;45403;-47
2021/11/30 07:20:23;;;;;;;;;12.75;10.75;;;;;7.47;72.11;101522.84;5062615;28;45426;-49
2021/11/30 07:22:49;;;;;;;;;7.50;7.50;;;;;7.48;72.37;101519.31;5060937;28;45565;-49
2021/11/30 07:25:14;;;;;;;;;9.50;7.75;;;;;7.50;72.02;101523.59;5053672;28;46051;-47
2021/11/30 07:27:40;;;;;;;;;14.75;11.00;;;;;7.49;72.17;101521.00;5061819;28;45402;-53
2021/11/30 07:30:06;;;;;;;;;67.00;53.67;;;;;7.52;72.49;101523.56;5061058;27;45359;-51
2021/11/30 07:32:31;;;;;;;;;10.00;10.00;;;;;7.53;72.43;101515.63;5061725;28;45351;-49
2021/11/30 07:34:57;;;;;;;;;15.00;11.00;;;;;7.56;72.35;101526.00;5061923;27;45431;-49
2021/11/30 07:37:23;;;;;;;;;16.75;11.00;;;;;7.57;72.30;101524.22;5061022;27;45541;-52
2021/11/30 07:39:48;;;;;;;;;11.50;9.75;;;;;7.58;72.13;101528.56;5061994;28;45356;-50
2021/11/30 07:42:14;;;;;;;;;15.50;11.75;;;;;7.61;72.35;101528.47;5062036;28;45379;-47
2021/11/30 07:44:39;;;;;;;;;15.75;14.50;;;;;7.61;72.64;101527.63;5062393;28;45425;-50
2021/11/30 07:47:05;;;;;;;;;15.75;12.50;;;;;7.63;72.67;101531.03;5062422;28;45302;-51
2021/11/30 07:49:30;;;;;;;;;11.50;9.00;;;;;7.63;73.14;101531.03;5062076;28;45225;-51
2021/11/30 07:51:56;;;;;;;;;13.50;11.00;;;;;7.63;72.83;101533.66;5062052;27;45365;-49
2021/11/30 07:54:22;;;;;;;;;11.25;10.00;;;;;7.65;72.83;101540.56;5059122;28;45554;-49
2021/11/30 07:56:48;;;;;;;;;18.00;12.25;;;;;7.63;72.92;101534.50;5056746;28;45489;-50
2021/11/30 07:59:13;;;;;;;;;16.50;15.00;;;;;7.69;72.65;101543.94;5056882;28;45387;-47
2021/11/30 08:01:39;;;;;;;;;12.25;10.00;;;;;7.68;72.58;101540.47;5056781;28;45615;-48
2021/11/30 08:04:05;;;;;;;;;15.00;12.50;;;;;7.69;72.77;101539.56;5056450;28;45472;-48
2021/11/30 08:06:30;;;;;;;;;21.25;19.00;;;;;7.72;72.50;101531.56;5053783;28;45481;-50
2021/11/30 08:08:56;;;;;;;;;16.25;14.75;;;;;7.74;72.36;101539.38;5056533;28;45425;-47
2021/11/30 08:11:22;;;;;;;;;16.75;12.00;;;;;7.74;72.63;101531.50;5059415;28;45512;-48
2021/11/30 08:13:47;;;;;;;;;23.00;11.50;;;;;7.74;72.26;101539.38;5056320;28;45368;-49
2021/11/30 08:16:13;;;;;;;;;16.00;14.50;;;;;7.74;72.33;101540.25;5058230;27;45439;-47
2021/11/30 08:18:38;;;;;;;;;21.75;15.75;;;;;7.74;72.55;101529.78;5057792;28;45347;-47
2021/11/30 08:21:05;;;;;;;;;17.00;11.50;;;;;7.77;72.42;101541.91;5056542;28;45481;-48
2021/11/30 08:23:31;;;;;;;;;13.25;11.00;;;;;7.76;72.48;101535.81;5053826;28;46385;-47
2021/11/30 08:25:56;;;;;;;;;16.75;12.75;;;;;7.77;72.31;101540.16;5060041;28;45467;-50
2021/11/30 08:28:22;;;;;;;;;12.75;12.75;;;;;7.80;72.35;101540.03;5061359;28;45366;-52
2021/11/30 08:30:48;;;;;;;;;15.25;11.25;;;;;7.82;72.37;101542.63;5061455;28;45408;-51
2021/11/30 08:33:14;;;;;;;;;15.75;10.75;;;;;7.81;72.43;101552.22;5061336;28;46220;-50
2021/11/30 08:35:40;;;;;;;;;15.25;13.75;;;;;7.81;72.52;101538.25;5060915;28;45402;-49
2021/11/30 08:38:06;;;;;;;;;16.50;15.00;;;;;7.83;72.47;101542.56;5061745;28;45259;-51
2021/11/30 08:40:33;;;;;;;;;10.00;7.00;;;;;7.88;72.48;101544.16;5061068;28;45469;-50
2021/11/30 08:42:58;;;;;;;;;14.50;12.00;;;;;7.89;72.29;101540.63;5074519;27;45375;-51
2021/11/30 08:45:24;;;;;;;;;14.50;13.00;;;;;7.89;72.32;101544.09;5061591;28;45318;-53
2021/11/30 08:47:49;;;;;;;;;10.50;10.50;;;;;7.92;72.31;101551.03;5060387;27;45778;-52
2021/11/30 08:50:17;;;;;;;;;17.00;12.00;;;;;7.92;72.27;101538.75;5061425;27;45202;-48
2021/11/30 08:52:44;;;;;;;;;10.75;7.75;;;;;7.95;72.12;101543.88;5061092;28;45511;-52
2021/11/30 08:55:11;;;;;;;;;15.75;15.25;;;;;7.95;72.07;101538.63;5061457;28;45267;-50
2021/11/30 08:57:37;;;;;;;;;19.00;16.00;;;;;7.97;72.32;101544.69;5061249;28;45357;-52
2021/11/30 09:00:08;;;;;;;;;25.25;20.75;;;;;8.00;72.31;101541.97;5061497;28;45318;-50
2021/11/30 09:02:35;;;;;;;;;19.25;12.75;;;;;8.07;72.49;101543.47;5060806;28;45718;-52
2021/11/30 09:05:01;;;;;;;;;16.00;12.00;;;;;8.06;72.22;101533.03;5061178;28;45327;-49
2021/11/30 09:07:27;;;;;;;;;17.75;15.00;;;;;8.10;71.99;101538.09;5061143;28;45328;-51
2021/11/30 09:09:53;;;;;;;;;12.00;12.00;;;;;8.12;71.85;101541.50;5059895;28;45540;-52
2021/11/30 09:12:19;;;;;;;;;15.25;15.25;;;;;8.14;72.14;101541.47;5060592;28;45458;-48
2021/11/30 09:14:47;;;;;;;;;21.50;16.00;;;;;8.17;72.14;101551.84;5061117;28;45232;-52
2021/11/30 09:17:13;;;;;;;;;16.75;11.50;;;;;8.18;71.91;101539.59;5061253;28;45327;-49
2021/11/30 09:19:39;;;;;;;;;19.25;15.00;;;;;8.20;72.18;101543.84;5060838;27;45421;-50
2021/11/30 09:22:05;;;;;;;;;19.75;16.00;;;;;8.24;72.08;101547.25;5060888;28;45421;-51
2021/11/30 09:24:31;;;;;;;;;16.50;12.00;;;;;8.24;71.88;101553.34;5060973;28;45389;-51
2021/11/30 09:26:57;;;;;;;;;19.75;16.00;;;;;8.25;71.89;101554.19;5060628;28;45288;-51
2021/11/30 09:29:22;;;;;;;;;19.25;16.25;;;;;8.26;72.04;101550.66;5052677;27;45268;-51
2021/11/30 09:31:48;;;;;;;;;18.75;18.00;;;;;8.30;71.94;101547.03;5055675;28;45936;-49
2021/11/30 09:34:14;;;;;;;;;14.75;13.25;;;;;8.32;72.18;101535.53;5060766;28;45203;-51
2021/11/30 09:36:43;;;;;;;;;18.25;13.00;;;;;8.36;72.20;101538.94;5060765;27;45229;-51
2021/11/30 09:39:09;;;;;;;;;16.00;12.00;;;;;8.43;71.99;101539.56;5060769;27;45523;-51
2021/11/30 09:41:35;;;;;;;;;16.00;14.50;;;;;8.45;71.94;101540.34;5061926;28;45318;-48
2021/11/30 09:44:01;;;;;;;;;20.00;15.75;;;;;8.45;72.16;101538.56;5072333;27;45278;-48
2021/11/30 09:46:27;;;;;;;;;16.00;13.75;;;;;8.45;72.00;101542.97;5060820;28;45208;-53
2021/11/30 09:48:53;;;;;;;;;14.00;12.00;;;;;8.48;72.29;101546.34;5060819;28;45333;-48
2021/11/30 09:51:18;;;;;;;;;15.50;15.50;;;;;8.50;72.34;101549.78;5059531;28;45472;-51
2021/11/30 09:53:45;;;;;;;;;25.00;18.75;;;;;8.53;72.27;101547.06;5060264;28;45208;-50
2021/11/30 09:56:11;;;;;;;;;25.25;17.25;;;;;8.57;72.21;101546.00;5060504;28;45314;-53
2021/11/30 09:58:37;;;;;;;;;25.25;18.00;;;;;8.57;72.23;101545.16;5060201;28;45453;-50
2021/11/30 10:01:04;;;;;;;;;20.50;19.25;;;;;8.59;72.39;101541.53;5060186;28;45337;-50
2021/11/30 10:03:30;;;;;;;;;17.75;16.50;;;;;8.65;72.39;101543.09;5060560;28;45416;-53
2021/11/30 10:05:57;;;;;;;;;17.00;16.75;;;;;8.68;72.53;101545.59;5060362;28;45297;-50
2021/11/30 10:08:30;;;;;;;;;20.75;14.50;;;;;8.73;72.17;101546.28;5060485;28;45453;-50
2021/11/30 10:10:56;;;;;;;;;22.00;17.50;;;;;8.75;72.17;101547.06;5059895;27;45839;-49
2021/11/30 10:13:22;;;;;;;;;25.75;21.00;;;;;8.80;72.22;101542.50;5060376;28;45312;-48
2021/11/30 10:15:55;;;;;;;;;22.00;16.50;;;;;8.91;71.97;101536.81;5060153;27;45162;-48
2021/11/30 10:18:33;;;;;;;;;17.00;12.50;;;;;8.97;71.75;101533.94;5060131;28;45278;-52
2021/11/30 10:21:23;;;;;;;;;21.50;16.50;;;;;9.00;71.89;101538.22;5059720;28;46276;-51
2021/11/30 10:23:51;;;;;;;;;17.25;15.00;;;;;9.03;71.99;101528.47;5060027;28;45331;-50
2021/11/30 10:26:20;;;;;;;;;20.75;13.75;;;;;9.06;71.72;101530.94;5059590;27;45349;-51
2021/11/30 10:28:57;;;;;;;;;17.00;13.00;;;;;9.05;71.62;101537.13;5059939;28;45317;-50
2021/11/30 10:31:28;;;;;;;;;19.50;14.00;;;;;9.02;71.81;101534.63;5059385;27;45406;-47
2021/11/30 10:33:54;;;;;;;;;19.00;16.75;;;;;9.02;71.77;101532.00;5059349;28;45185;-46
2021/11/30 10:36:20;;;;;;;;;18.00;15.50;;;;;9.06;71.68;101540.59;5059623;28;45320;-48
2021/11/30 10:38:46;;;;;;;;;22.50;17.50;;;;;9.05;71.36;101539.75;5059647;28;45528;-47
2021/11/30 10:41:25;;;;;;;;;20.50;15.25;;;;;9.02;71.42;101536.41;5059972;28;45351;-50
2021/11/30 10:43:55;;;;;;;;;16.50;13.50;;;;;9.01;71.40;101532.06;5046301;28;45606;-48
2021/11/30 10:46:30;;;;;;;;;20.75;13.50;;;;;9.05;71.92;101529.25;5059643;28;45307;-47
2021/11/30 10:48:56;;;;;;;;;16.50;12.50;;;;;9.08;71.71;101536.13;5059916;28;45226;-47
2021/11/30 10:51:23;;;;;;;;;14.75;13.00;;;;;9.11;71.49;101529.00;5059709;28;45469;-48
2021/11/30 10:53:54;;;;;;;;;13.25;12.25;;;;;9.12;71.98;101525.44;5059895;28;45342;-46
2021/11/30 10:56:20;;;;;;;;;13.00;12.50;;;;;9.09;71.68;101530.00;5059816;28;45240;-48
2021/11/30 10:58:46;;;;;;;;;15.50;12.25;;;;;9.12;71.64;101524.59;5059694;27;45227;-47
2021/11/30 11:01:16;;;;;;;;;15.50;12.00;;;;;9.14;71.61;101514.88;5059305;27;45319;-49
2021/11/30 11:03:42;;;;;;;;;18.00;11.75;;;;;9.18;71.88;101506.81;5059943;27;45297;-49
2021/11/30 11:08:59;;;;;;;;;14.00;12.00;;;;;9.30;71.56;101504.56;5063318;28;45185;-52
2021/11/30 11:11:28;;;;;;;;;14.25;12.00;;;;;9.34;71.84;101509.66;5062741;27;45442;-50
2021/11/30 11:13:54;;;;;;;;;12.00;9.75;;;;;9.36;71.53;101504.31;5062680;27;45239;-48
2021/11/30 11:16:26;;;;;;;;;13.00;11.75;;;;;9.36;71.51;101504.31;5063366;28;45389;-50
2021/11/30 11:18:55;;;;;;;;;14.00;12.00;;;;;9.41;71.70;101482.19;5062864;28;45577;-50
2021/11/30 11:21:27;;;;;;;;;12.00;11.50;;;;;9.45;71.83;101480.28;5062811;28;46155;-49
2021/11/30 11:24:15;;;;;;;;;13.00;11.25;;;;;9.44;71.40;101486.44;5062866;27;45332;-51
2021/11/30 11:26:54;;;;;;;;;16.25;10.75;;;;;9.47;72.03;101481.06;5062916;28;45299;-47
2021/11/30 11:29:27;;;;;;;;;13.75;9.25;;;;;9.48;72.05;101483.63;5062932;28;45334;-51
2021/11/30 11:31:55;;;;;;;;;16.50;12.75;;;;;9.54;71.64;101481.66;5062576;28;45724;-52
2021/11/30 11:34:25;;;;;;;;;12.75;9.00;;;;;9.61;71.74;101476.06;5062716;28;45232;-50
2021/11/30 11:36:52;;;;;;;;;14.50;9.00;;;;;9.69;71.80;101470.47;5062654;28;45331;-50
2021/11/30 11:39:20;;;;;;;;;13.50;11.50;;;;;9.78;71.73;101467.41;5062972;28;45446;-53